Time;durP1;ratioP1;P1;durP2;ratioP2;P2;SDS_P1;SDS_P2;PMS_P1;PMS_P2;Temp;Humidity;BMP_temperature;BMP_pressure;BME280_temperature;BME280_humidity;BME280_pressure;Samples;Min_cycle;Max_cycle;Signal;HPM_P1;HPM_P2
2023/02/13 00:02:09;;;;;;;78.97;51.27;;;;;;;3.12;53.33;101462.59;5013838;28;20025;-80
2023/02/13 00:04:34;;;;;;;77.07;51.50;;;;;;;2.91;53.36;101414.16;5013657;28;20029;-80
2023/02/13 00:07:00;;;;;;;69.63;47.23;;;;;;;3.36;53.69;101510.00;5014957;28;20034;-79
2023/02/13 00:09:25;;;;;;;66.83;46.23;;;;;;;3.35;53.56;101501.34;5015039;28;20101;-80
2023/02/13 00:11:51;;;;;;;72.70;46.53;;;;;;;3.24;53.66;101506.31;5014890;28;20061;-80
2023/02/13 00:14:16;;;;;;;66.43;44.87;;;;;;;3.30;53.85;101526.84;5014616;28;20491;-80
2023/02/13 00:16:42;;;;;;;73.10;47.43;;;;;;;3.46;54.00;101547.75;5013394;28;20021;-80
2023/02/13 00:19:07;;;;;;;68.50;47.03;;;;;;;3.40;54.02;101530.66;5013280;28;20048;-80
2023/02/13 00:21:32;;;;;;;70.07;48.00;;;;;;;2.52;53.83;101397.97;5014274;28;20431;-80
2023/02/13 00:23:58;;;;;;;65.53;45.93;;;;;;;2.78;53.89;101453.09;5014289;28;20036;-80
2023/02/13 00:26:23;;;;;;;67.60;46.67;;;;;;;2.97;54.05;101479.91;5014396;28;20031;-80
2023/02/13 00:28:49;;;;;;;71.17;46.00;;;;;;;2.81;54.26;101476.41;5014566;28;20076;-80
2023/02/13 00:31:17;;;;;;;65.70;44.43;;;;;;;3.33;54.23;101549.34;5014354;28;20026;-80
2023/02/13 00:33:42;;;;;;;64.80;46.20;;;;;;;2.53;54.15;101412.69;5013768;28;20101;-80
2023/02/13 00:36:11;;;;;;;70.03;46.93;;;;;;;2.57;53.94;101457.69;5014287;28;20052;-80
2023/02/13 00:38:38;;;;;;;65.60;44.80;;;;;;;3.24;53.86;101550.69;5014349;28;20127;-79
2023/02/13 00:41:04;;;;;;;58.40;38.83;;;;;;;3.23;53.92;101564.66;5014237;28;20065;-80
2023/02/13 00:43:29;;;;;;;48.50;32.87;;;;;;;2.91;53.80;101528.94;5013822;28;20026;-80
2023/02/13 00:45:57;;;;;;;46.83;32.00;;;;;;;3.04;54.47;101549.13;5013862;28;20094;-80
2023/02/13 00:48:23;;;;;;;41.13;28.33;;;;;;;2.82;54.48;101517.22;5014139;28;20025;-80
2023/02/13 00:50:48;;;;;;;38.87;27.10;;;;;;;2.80;54.19;101537.34;5012633;28;20030;-80
2023/02/13 00:53:14;;;;;;;41.93;27.43;;;;;;;2.46;54.29;101486.09;5012492;28;20018;-80
2023/02/13 00:55:39;;;;;;;49.13;32.50;;;;;;;2.57;54.01;101527.25;5013869;28;20049;-80
2023/02/13 00:58:04;;;;;;;66.10;39.80;;;;;;;2.13;54.24;101432.13;5013873;28;20115;-80
2023/02/13 01:00:30;;;;;;;50.50;32.77;;;;;;;2.38;54.25;101504.72;5013887;28;20209;-80
2023/02/13 01:02:55;;;;;;;41.13;27.27;;;;;;;1.94;54.34;101425.31;5013625;28;20411;-79
2023/02/13 01:05:20;;;;;;;42.07;28.10;;;;;;;2.42;54.34;101505.41;5013582;28;20487;-80
2023/02/13 01:07:46;;;;;;;39.73;26.47;;;;;;;2.03;54.23;101435.25;5012300;28;20029;-80
2023/02/13 01:10:11;;;;;;;46.60;28.93;;;;;;;2.21;54.36;101481.25;5013736;28;20034;-80
2023/02/13 01:12:37;;;;;;;48.47;32.20;;;;;;;1.97;54.28;101426.00;5013375;28;20410;-80
2023/02/13 01:15:03;;;;;;;42.30;27.20;;;;;;;1.94;54.15;101426.16;5013362;28;20030;-80
2023/02/13 01:17:29;;;;;;;41.40;29.00;;;;;;;2.38;54.40;101516.91;5014711;28;20026;-79
2023/02/13 01:19:54;;;;;;;43.23;28.00;;;;;;;2.61;54.14;101547.88;5015585;28;20029;-80
2023/02/13 01:22:20;;;;;;;40.60;28.50;;;;;;;2.67;54.71;101568.41;5015091;28;20038;-80
2023/02/13 01:24:45;;;;;;;43.87;28.63;;;;;;;1.78;54.40;101410.44;5015612;28;20049;-80
2023/02/13 01:27:10;;;;;;;44.43;29.53;;;;;;;2.50;54.61;101543.19;5015184;28;20049;-80
2023/02/13 01:29:36;;;;;;;42.80;27.93;;;;;;;2.32;54.42;101512.84;5015008;28;20407;-80
2023/02/13 01:32:03;;;;;;;62.87;38.30;;;;;;;2.15;54.50;101473.72;5013309;28;20045;-80
2023/02/13 01:34:30;;;;;;;51.13;32.97;;;;;;;2.68;54.29;101559.69;5013295;28;20022;-80
2023/02/13 01:36:55;;;;;;;44.57;31.00;;;;;;;1.96;54.48;101449.53;5011926;28;20418;-80
2023/02/13 01:39:21;;;;;;;42.70;29.80;;;;;;;1.86;54.44;101501.22;5013099;28;20029;-80
2023/02/13 01:41:46;;;;;;;44.50;29.23;;;;;;;2.07;54.59;101491.50;5013064;28;20097;-80
2023/02/13 01:45:03;;;;;;;45.50;29.70;;;;;;;2.54;54.85;101572.56;5012158;28;20457;-79
2023/02/13 01:47:57;;;;;;;46.97;29.63;;;;;;;2.16;54.56;101541.41;4990105;28;20033;-80
2023/02/13 01:50:35;;;;;;;43.83;27.80;;;;;;;2.47;54.57;101577.25;5009568;28;20423;-80
2023/02/13 01:53:12;;;;;;;45.13;27.93;;;;;;;2.34;54.54;101565.75;5012950;28;20120;-79
2023/02/13 01:55:47;;;;;;;33.10;24.20;;;;;;;1.58;54.95;101447.03;5011618;28;20037;-80
2023/02/13 01:58:17;;;;;;;37.87;24.00;;;;;;;2.03;55.21;101587.22;5012457;28;20097;-79
2023/02/13 02:00:48;;;;;;;36.03;24.70;;;;;;;2.29;54.65;101604.22;5013524;28;20029;-80
2023/02/13 02:03:29;;;;;;;30.60;20.00;;;;;;;1.88;54.59;101515.84;5014845;28;20022;-80
2023/02/13 02:05:57;;;;;;;107.00;55.47;;;;;;;2.25;54.59;101587.06;5016375;28;20108;-80
2023/02/13 02:08:23;;;;;;;62.77;36.53;;;;;;;1.79;54.68;101525.88;5016063;28;20590;-79
2023/02/13 02:10:48;;;;;;;45.17;29.37;;;;;;;1.66;54.68;101512.59;5016265;28;20026;-80
2023/02/13 02:13:19;;;;;;;42.10;28.10;;;;;;;1.33;54.91;101454.28;5015976;28;20125;-80
2023/02/13 02:15:47;;;;;;;39.67;26.87;;;;;;;1.39;54.75;101467.88;5014912;28;20022;-80
2023/02/13 02:18:20;;;;;;;41.63;26.77;;;;;;;1.35;54.65;101465.47;5015230;28;20028;-80
2023/02/13 02:21:25;;;;;;;35.30;26.00;;;;;;;2.16;54.71;101593.53;5014907;28;20093;-80
2023/02/13 02:24:35;;;;;;;35.37;25.13;;;;;;;1.58;54.81;101507.75;5013578;28;20128;-80
2023/02/13 02:27:21;;;;;;;36.33;25.67;;;;;;;2.15;55.02;101604.03;4993467;28;20036;-80
2023/02/13 02:29:47;;;;;;;41.90;28.00;;;;;;;2.11;55.03;101607.69;4993475;28;20108;-80
2023/02/13 02:32:21;;;;;;;34.57;26.67;;;;;;;2.09;54.76;101605.16;5004256;28;20506;-79
2023/02/13 02:34:46;;;;;;;40.20;26.33;;;;;;;2.10;54.97;101619.03;5010849;28;20037;-79
2023/02/13 02:37:34;;;;;;;40.30;27.90;;;;;;;2.08;54.53;101616.50;5012077;28;20414;-80
2023/02/13 02:40:47;;;;;;;86.57;45.33;;;;;;;2.01;55.08;101615.09;5012140;28;20033;-79
2023/02/13 02:43:19;;;;;;;;;;;;;;;1.88;55.34;101620.03;4974507;28;20037;-79
2023/02/13 02:45:50;;;;;;;43.50;27.25;;;;;;;1.94;54.99;101612.84;5009918;28;20059;-79
2023/02/13 02:51:39;;;;;;;40.30;24.03;;;;;;;1.87;55.04;101620.97;5011981;28;20264;-80
2023/02/13 03:06:09;;;;;;;41.92;26.40;;;;;;;1.78;55.11;101623.16;4989563;28;20613;-80
2023/02/13 03:14:07;;;;;;;38.90;26.37;;;;;;;0.56;54.83;101485.50;5011973;28;20044;-80
2023/02/13 03:22:46;;;;;;;31.80;23.70;;;;;;;0.80;55.10;101526.06;5013117;28;20065;-80
2023/02/13 03:25:29;;;;;;;36.07;24.83;;;;;;;1.38;54.94;101627.53;5013172;28;20037;-80
2023/02/13 03:30:58;;;;;;;37.70;24.33;;;;;;;1.28;54.83;101618.44;5012818;28;20037;-80
2023/02/13 03:33:48;;;;;;;38.07;25.20;;;;;;;0.74;55.14;101549.69;5012094;28;20025;-80
2023/02/13 03:39:19;;;;;;;33.67;23.87;;;;;;;0.21;55.20;101489.63;5013852;28;20037;-80
2023/02/13 03:42:01;;;;;;;32.77;22.63;;;;;;;0.34;55.22;101506.38;5013678;28;20056;-79
2023/02/13 03:44:32;;;;;;;38.72;26.30;;;;;;;-0.63;55.14;101346.88;5012460;28;20510;-80
2023/02/13 03:47:00;;;;;;;39.63;26.30;;;;;;;0.66;55.27;101588.16;5011982;28;20041;-80
2023/02/13 03:52:30;;;;;;;32.83;23.30;;;;;;;0.68;55.01;101588.09;5013003;28;20517;-80
2023/02/13 04:00:49;;;;;;;29.63;21.30;;;;;;;0.69;55.26;101621.84;5013171;28;20056;-80
2023/02/13 04:03:23;;;;;;;34.53;23.50;;;;;;;0.87;54.88;101641.91;5011064;28;20124;-79
2023/02/13 04:05:54;;;;;;;33.10;21.93;;;;;;;0.44;55.02;101557.03;5011062;28;20026;-80
2023/02/13 04:08:20;;;;;;;31.85;22.50;;;;;;;0.18;54.94;101524.34;5013845;28;20514;-80
2023/02/13 04:11:12;;;;;;;31.27;22.13;;;;;;;0.52;55.05;101567.97;5014406;28;20057;-80
2023/02/13 04:13:44;;;;;;;37.10;24.38;;;;;;;0.44;54.98;101567.44;5014711;28;20045;-80
2023/02/13 04:16:17;;;;;;;32.40;21.00;;;;;;;0.21;55.06;101550.19;5013438;28;20601;-80
2023/02/13 04:18:43;;;;;;;34.67;22.80;;;;;;;0.44;54.78;101571.78;5014984;28;20053;-80
2023/02/13 04:21:09;;;;;;;30.53;22.00;;;;;;;0.91;54.78;101646.06;5013892;28;20109;-80
2023/02/13 04:23:35;;;;;;;30.17;21.87;;;;;;;-0.43;55.18;101497.41;5013607;28;20113;-80
2023/02/13 04:26:05;;;;;;;30.90;22.10;;;;;;;0.78;54.88;101625.84;5014796;28;20545;-80
2023/02/13 04:28:30;;;;;;;29.77;20.97;;;;;;;0.80;54.92;101630.06;5015147;28;20033;-80
2023/02/13 04:30:56;;;;;;;27.73;21.57;;;;;;;0.78;55.10;101628.44;5015167;28;20026;-79
2023/02/13 04:33:22;;;;;;;31.77;22.07;;;;;;;0.84;55.02;101656.78;5014996;28;20021;-80
2023/02/13 04:35:47;;;;;;;31.50;21.57;;;;;;;0.25;54.75;101556.97;5015492;28;20022;-79
2023/02/13 04:38:13;;;;;;;33.20;23.33;;;;;;;-0.24;55.15;101481.94;5015335;28;20561;-80
2023/02/13 04:40:38;;;;;;;35.90;24.63;;;;;;;0.60;55.12;101611.81;5015069;28;20414;-80
2023/02/13 04:43:03;;;;;;;45.53;29.77;;;;;;;0.36;55.25;101600.69;5015048;28;20025;-80
2023/02/13 04:45:29;;;;;;;44.83;28.97;;;;;;;0.82;55.30;101658.59;5014263;28;20606;-80
2023/02/13 04:47:56;;;;;;;38.30;25.90;;;;;;;0.79;54.84;101711.56;5014039;28;20522;-80
2023/02/13 04:50:22;;;;;;;38.83;25.37;;;;;;;0.75;54.81;101660.59;5014107;28;20074;-79
2023/02/13 04:52:52;;;;;;;39.70;24.50;;;;;;;0.80;54.90;101660.41;5013648;28;20026;-79
2023/02/13 04:55:17;;;;;;;45.33;29.50;;;;;;;0.08;54.86;101592.31;5013012;28;20022;-80
2023/02/13 04:57:42;;;;;;;39.50;27.63;;;;;;;0.46;55.18;101611.56;5013091;28;20017;-80
2023/02/13 05:00:09;;;;;;;41.57;27.63;;;;;;;0.07;54.69;101543.88;5011878;28;20053;-80
2023/02/13 05:02:34;;;;;;;41.47;29.07;;;;;;;-0.10;54.72;101528.94;5011552;28;20050;-79
2023/02/13 05:04:59;;;;;;;41.67;27.50;;;;;;;0.30;54.81;101622.56;5015991;28;20531;-80
2023/02/13 05:07:25;;;;;;;49.67;31.37;;;;;;;0.31;55.09;101615.63;5013235;28;20534;-80
2023/02/13 05:09:50;;;;;;;56.17;36.87;;;;;;;0.06;54.76;101561.22;5014038;28;20064;-80
2023/02/13 05:12:15;;;;;;;57.10;37.63;;;;;;;0.25;55.06;101605.47;5014061;28;20041;-80
2023/02/13 05:14:41;;;;;;;55.97;37.87;;;;;;;0.54;54.97;101658.84;5014076;28;20045;-79
2023/02/13 05:17:06;;;;;;;51.97;34.27;;;;;;;0.34;55.22;101623.28;5014003;28;20529;-79
2023/02/13 05:19:32;;;;;;;57.13;37.17;;;;;;;0.28;55.16;101633.94;5013086;28;20030;-79
2023/02/13 05:24:41;;;;;;;60.23;39.10;;;;;;;-0.41;55.16;101516.34;5015158;28;20041;-79
2023/02/13 05:27:06;;;;;;;58.00;38.20;;;;;;;0.21;55.45;101654.09;4994804;28;20026;-80
2023/02/13 05:29:32;;;;;;;70.50;41.33;;;;;;;-0.55;55.26;101516.88;4993402;28;20104;-80
2023/02/13 05:31:58;;;;;;;60.90;38.57;;;;;;;0.09;55.48;101638.16;5006317;28;20026;-79
2023/02/13 05:34:25;;;;;;;52.07;35.03;;;;;;;-0.65;55.33;101534.53;5007352;28;20033;-80
2023/02/13 05:36:51;;;;;;;54.80;34.80;;;;;;;0.22;55.13;101683.53;5003769;28;20101;-80
2023/02/13 05:39:16;;;;;;;56.23;35.07;;;;;;;0.52;55.11;101707.47;4993912;28;20034;-80
2023/02/13 05:41:43;;;;;;;53.97;37.27;;;;;;;-0.28;55.25;101574.66;4992543;28;20026;-80
2023/02/13 05:44:10;;;;;;;54.20;34.17;;;;;;;0.43;55.33;101710.41;4993824;28;20034;-80
2023/02/13 05:46:39;;;;;;;63.00;36.97;;;;;;;0.41;55.64;101713.09;5007101;28;20597;-80
2023/02/13 05:49:06;;;;;;;60.03;40.10;;;;;;;0.41;55.78;101707.03;5014861;28;20494;-80
2023/02/13 05:51:31;;;;;;;65.67;38.30;;;;;;;-0.12;55.86;101645.00;5016212;28;20488;-80
2023/02/13 05:53:57;;;;;;;64.37;40.97;;;;;;;-0.31;56.04;101603.31;5016826;28;20082;-79
2023/02/13 05:56:23;;;;;;;71.50;43.93;;;;;;;-0.03;55.75;101662.81;5016384;28;20052;-80
2023/02/13 05:58:54;;;;;;;62.03;40.77;;;;;;;0.09;55.70;101670.16;5019754;28;20044;-79
2023/02/13 06:01:22;;;;;;;69.68;40.45;;;;;;;0.14;55.61;101680.38;5020547;28;20041;-80
2023/02/13 06:03:47;;;;;;;76.93;45.10;;;;;;;0.07;55.74;101671.97;5001911;28;20038;-80
2023/02/13 06:06:13;;;;;;;78.07;46.97;;;;;;;0.46;55.64;101721.53;4995063;28;20081;-80
2023/02/13 06:08:39;;;;;;;75.67;46.23;;;;;;;-0.08;55.85;101624.06;5009145;28;20502;-80
2023/02/13 06:11:05;;;;;;;79.73;48.43;;;;;;;-0.20;55.86;101585.59;5014606;28;20030;-80
2023/02/13 06:13:30;;;;;;;76.47;49.37;;;;;;;0.17;55.64;101662.09;5025418;28;20443;-80
2023/02/13 06:15:56;;;;;;;78.87;50.80;;;;;;;0.33;55.68;101678.75;5002965;28;20033;-79
2023/02/13 06:18:22;;;;;;;67.53;47.30;;;;;;;0.54;55.56;101719.47;5006069;28;20415;-79
2023/02/13 06:20:48;;;;;;;63.87;45.57;;;;;;;0.21;55.62;101690.47;5030928;28;20033;-80
2023/02/13 06:23:13;;;;;;;66.67;41.43;;;;;;;0.10;55.45;101665.81;5020163;28;20045;-80
2023/02/13 06:25:39;;;;;;;68.43;45.03;;;;;;;-0.94;55.87;101488.09;5017764;28;20022;-80
2023/02/13 06:28:04;;;;;;;59.20;40.30;;;;;;;-0.29;55.47;101596.31;5032979;28;20623;-80
2023/02/13 06:30:30;;;;;;;62.43;42.57;;;;;;;0.13;55.56;101663.09;5032890;28;20017;-80
2023/02/13 06:32:56;;;;;;;62.13;43.27;;;;;;;0.39;55.89;101701.06;5032666;28;20048;-80
2023/02/13 06:35:22;;;;;;;69.33;48.37;;;;;;;0.25;55.84;101686.00;5033663;28;20065;-80
2023/02/13 06:37:47;;;;;;;69.83;50.57;;;;;;;0.29;55.74;101687.59;5032933;28;20037;-80
2023/02/13 06:40:14;;;;;;;75.93;52.90;;;;;;;-0.14;55.56;101595.72;5031309;28;20033;-80
2023/02/13 06:42:44;;;;;;;86.47;57.70;;;;;;;0.63;55.73;101736.47;5029966;28;20056;-80
2023/02/13 06:45:10;;;;;;;85.37;54.83;;;;;;;0.71;55.64;101715.38;5032390;28;20079;-81
2023/02/13 06:47:40;;;;;;;77.33;52.23;;;;;;;-1.18;55.78;101395.69;5032859;28;20044;-81
2023/02/13 06:50:06;;;;;;;96.27;66.03;;;;;;;0.09;55.53;101587.06;5031382;28;20069;-80
2023/02/13 06:52:31;;;;;;;83.70;54.20;;;;;;;0.23;55.34;101604.69;5032852;28;20076;-80
2023/02/13 06:54:56;;;;;;;98.03;65.30;;;;;;;0.76;55.45;101703.91;5019909;28;20426;-80
2023/02/13 06:57:22;;;;;;;85.13;54.37;;;;;;;0.52;55.63;101645.09;5029331;28;20033;-80
2023/02/13 06:59:47;;;;;;;76.37;50.63;;;;;;;0.53;55.20;101642.41;5028611;28;20029;-81
2023/02/13 07:02:13;;;;;;;77.90;50.30;;;;;;;0.89;55.40;101671.28;5014990;28;20052;-80
2023/02/13 07:04:38;;;;;;;75.80;50.50;;;;;;;0.92;55.31;101657.31;5009260;28;20019;-80
2023/02/13 07:07:04;;;;;;;84.17;52.60;;;;;;;0.75;55.06;101637.22;5030308;28;20036;-80
2023/02/13 07:09:30;;;;;;;81.07;53.00;;;;;;;0.98;55.26;101695.22;5022520;28;20087;-80
2023/02/13 07:11:56;;;;;;;79.30;52.13;;;;;;;0.87;55.35;101625.44;5015314;28;20152;-81
2023/02/13 07:14:22;;;;;;;84.10;53.40;;;;;;;1.04;55.27;101654.19;5015684;28;20045;-81
2023/02/13 07:16:48;;;;;;;79.33;51.90;;;;;;;1.06;55.57;101638.50;5014631;28;20026;-80
2023/02/13 07:19:13;;;;;;;82.20;53.13;;;;;;;0.41;55.30;101520.78;5015088;28;20080;-80
2023/02/13 07:21:39;;;;;;;84.70;55.80;;;;;;;0.93;55.29;101592.22;5016886;28;20049;-80
2023/02/13 07:24:04;;;;;;;86.17;54.47;;;;;;;1.36;55.23;101691.81;5033785;28;20041;-81
2023/02/13 07:26:30;;;;;;;80.50;57.10;;;;;;;1.14;55.33;101613.84;5034642;28;20022;-80
2023/02/13 07:28:55;;;;;;;77.73;52.53;;;;;;;1.18;55.46;101636.22;5027790;28;20092;-80
2023/02/13 07:31:21;;;;;;;75.30;49.60;;;;;;;0.83;55.17;101538.94;5033610;28;20060;-80
2023/02/13 07:33:49;;;;;;;75.57;52.47;;;;;;;1.90;55.41;101708.53;5034423;28;20049;-80
2023/02/13 07:36:15;;;;;;;76.53;48.83;;;;;;;1.56;55.37;101680.56;5035440;28;20045;-80
2023/02/13 07:38:40;;;;;;;71.50;46.20;;;;;;;1.99;55.37;101709.88;5035148;28;20040;-80
2023/02/13 07:41:06;;;;;;;66.97;44.33;;;;;;;2.00;55.53;101698.53;5033928;28;20055;-81
2023/02/13 07:43:31;;;;;;;61.67;43.63;;;;;;;2.31;55.24;101721.44;5036541;28;20030;-80
2023/02/13 07:45:59;;;;;;;61.40;41.43;;;;;;;2.39;55.25;101716.72;5037510;28;20029;-80
2023/02/13 07:48:27;;;;;;;59.77;42.13;;;;;;;1.85;55.01;101629.75;5036053;28;20100;-81
2023/02/13 07:50:54;;;;;;;55.10;38.60;;;;;;;1.90;55.05;101614.75;5018710;28;20108;-80
2023/02/13 07:53:19;;;;;;;51.60;34.47;;;;;;;2.68;54.60;101720.53;5016895;28;20022;-79
2023/02/13 07:55:45;;;;;;;44.87;30.97;;;;;;;2.17;54.50;101610.84;5034947;28;20021;-80
2023/02/13 07:58:10;;;;;;;42.47;29.13;;;;;;;2.67;54.39;101700.59;5024230;28;20046;-80
2023/02/13 08:00:36;;;;;;;30.70;21.97;;;;;;;2.60;53.95;101663.53;5017292;28;20032;-80
2023/02/13 08:03:03;;;;;;;28.23;19.17;;;;;;;2.97;52.91;101700.84;5005541;28;20033;-80
2023/02/13 08:05:30;;;;;;;25.33;17.57;;;;;;;3.07;52.40;101692.50;4996633;28;20022;-80
2023/02/13 08:07:56;;;;;;;23.57;16.93;;;;;;;2.40;52.48;101573.25;4999004;28;20088;-80
2023/02/13 08:13:06;;;;;;;19.70;13.63;;;;;;;2.93;51.57;101634.06;5006468;28;20093;-80
2023/02/13 08:15:32;;;;;;;25.87;18.03;;;;;;;2.48;51.15;101568.50;5017066;28;20029;-80
2023/02/13 08:17:57;;;;;;;23.07;16.70;;;;;;;2.76;50.85;101588.81;5014609;28;20029;-80
2023/02/13 08:20:23;;;;;;;27.20;18.03;;;;;;;3.14;50.85;101649.50;5018428;28;20160;-81
2023/02/13 08:22:48;;;;;;;25.30;17.37;;;;;;;2.84;50.42;101593.66;5007102;28;20538;-81
2023/02/13 08:25:14;;;;;;;31.20;21.20;;;;;;;2.15;50.17;101468.53;5002009;28;20500;-80
2023/02/13 08:27:40;;;;;;;27.27;19.23;;;;;;;3.35;49.85;101657.16;5011339;28;20475;-80
2023/02/13 08:30:06;;;;;;;24.40;18.60;;;;;;;3.19;50.16;101610.97;5038516;28;20021;-80
2023/02/13 08:32:31;;;;;;;25.83;18.73;;;;;;;2.71;49.93;101541.25;5039809;28;20029;-80
2023/02/13 08:34:57;;;;;;;23.30;15.93;;;;;;;3.74;49.19;101665.50;5034983;28;20087;-81
2023/02/13 08:37:23;;;;;;;24.20;17.33;;;;;;;3.97;49.36;101674.72;5023333;28;20056;-80
2023/02/13 08:39:48;;;;;;;25.03;17.50;;;;;;;3.72;49.05;101622.97;5039379;28;20502;-81
2023/02/13 08:42:14;;;;;;;26.73;19.40;;;;;;;3.27;48.73;101544.44;5049623;28;20021;-80
2023/02/13 08:44:41;;;;;;;23.23;15.83;;;;;;;2.16;48.89;101398.09;5038613;28;20083;-80
2023/02/13 08:47:07;;;;;;;20.83;15.27;;;;;;;3.36;48.38;101516.09;5015065;28;20046;-80
2023/02/13 08:49:33;;;;;;;18.70;12.57;;;;;;;3.33;47.75;101497.13;5016733;28;20018;-80
2023/02/13 08:51:59;;;;;;;16.63;10.83;;;;;;;4.44;47.79;101674.69;5003109;28;20034;-81
2023/02/13 08:54:26;;;;;;;13.10;9.50;;;;;;;4.24;47.38;101633.13;5017725;28;20030;-80
2023/02/13 08:56:52;;;;;;;12.73;9.53;;;;;;;3.62;46.86;101511.19;5018678;28;20013;-80
2023/02/13 08:59:17;;;;;;;18.63;12.10;;;;;;;3.83;46.40;101541.38;5019460;28;20533;-80
2023/02/13 09:01:42;;;;;;;16.83;10.70;;;;;;;4.44;46.64;101640.69;5019398;28;20119;-80
2023/02/13 09:04:08;;;;;;;16.40;10.90;;;;;;;3.85;46.34;101515.16;5030337;28;20026;-81
2023/02/13 09:06:33;;;;;;;13.17;9.63;;;;;;;4.50;46.08;101623.00;5038184;28;20074;-80
2023/02/13 09:08:59;;;;;;;12.80;8.40;;;;;;;4.31;45.96;101571.72;5025449;28;20030;-80
2023/02/13 09:11:24;;;;;;;14.60;8.90;;;;;;;4.44;45.46;101580.53;5000081;28;20040;-80
2023/02/13 09:13:53;;;;;;;13.17;8.60;;;;;;;4.34;45.65;101578.53;4996412;28;20044;-80
2023/02/13 09:16:18;;;;;;;12.50;8.93;;;;;;;4.85;45.17;101627.03;4996026;28;20026;-81
2023/02/13 09:18:47;;;;;;;11.60;9.40;;;;;;;4.57;45.16;101564.16;4996925;28;20461;-80
2023/02/13 09:21:13;;;;;;;14.80;9.10;;;;;;;5.22;45.24;101648.41;5016335;28;20109;-80
2023/02/13 09:23:39;;;;;;;13.67;9.77;;;;;;;5.03;44.53;101610.22;5022131;28;20053;-80
2023/02/13 09:26:08;;;;;;;11.07;8.10;;;;;;;5.35;44.61;101652.81;5013460;28;20021;-80
2023/02/13 09:28:34;;;;;;;14.97;10.30;;;;;;;5.42;44.36;101646.28;5014195;28;20030;-80
2023/02/13 09:31:04;;;;;;;13.00;9.53;;;;;;;4.65;44.39;101515.69;5009233;28;20032;-80
2023/02/13 09:33:30;;;;;;;28.50;20.00;;;;;;;4.75;44.17;101516.81;5003154;28;20053;-80
2023/02/13 09:35:55;;;;;;;28.70;20.53;;;;;;;5.59;44.39;101641.78;4995868;28;20152;-80
2023/02/13 09:38:21;;;;;;;21.50;14.50;;;;;;;5.23;43.99;101568.94;5005882;28;20487;-80
2023/02/13 09:40:55;;;;;;;16.10;11.20;;;;;;;4.94;43.73;101515.69;5019034;28;20025;-80
2023/02/13 09:43:49;;;;;;;20.47;14.73;;;;;;;5.71;43.60;101618.28;5013265;28;20029;-80
2023/02/13 09:46:37;;;;;;;22.80;15.83;;;;;;;5.26;43.52;101553.03;5005941;28;20034;-80
2023/02/13 09:49:11;;;;;;;24.97;17.77;;;;;;;5.87;43.71;101617.31;5017310;28;20037;-80
2023/02/13 09:51:37;;;;;;;23.63;17.40;;;;;;;4.87;43.61;101434.09;5032197;28;20024;-80
2023/02/13 09:54:06;;;;;;;21.27;12.57;;;;;;;5.70;44.05;101556.31;5029351;28;20029;-80
2023/02/13 09:57:06;;;;;;;17.77;11.30;;;;;;;6.05;43.37;101589.97;5032914;28;20026;-80
2023/02/13 09:59:41;;;;;;;13.67;10.97;;;;;;;6.38;43.35;101607.94;5033262;28;20080;-80
2023/02/13 10:02:35;;;;;;;15.87;11.97;;;;;;;6.34;42.44;101606.44;5006374;28;20057;-81
2023/02/13 10:05:36;;;;;;;16.37;12.80;;;;;;;6.56;42.49;101596.22;5009998;28;20120;-81
2023/02/13 10:08:16;;;;;;;21.07;15.30;;;;;;;6.62;43.27;101587.09;5002022;28;20041;-80
2023/02/13 10:11:06;;;;;;;15.07;12.23;;;;;;;6.73;42.38;101579.38;5011523;28;20411;-81
2023/02/13 10:13:43;;;;;;;18.90;13.20;;;;;;;6.86;42.68;101579.38;5006685;28;20022;-80
2023/02/13 10:16:19;;;;;;;16.77;11.90;;;;;;;6.15;42.42;101438.94;5022913;28;20059;-80
2023/02/13 10:18:56;;;;;;;16.70;12.53;;;;;;;7.05;42.66;101573.69;4993112;28;20017;-80
2023/02/13 10:21:27;;;;;;;17.80;13.43;;;;;;;6.34;42.15;101451.66;5002031;28;20112;-80
2023/02/13 10:24:13;;;;;;;19.20;13.32;;;;;;;6.43;42.51;101479.06;5012677;28;20053;-79
2023/02/13 10:26:42;;;;;;;17.77;13.27;;;;;;;7.13;42.04;101582.72;5020052;28;20029;-81
2023/02/13 10:32:03;;;;;;;19.23;13.87;;;;;;;6.72;42.30;101475.31;5029870;28;20045;-81
2023/02/13 10:34:37;;;;;;;18.35;13.48;;;;;;;7.13;41.94;101518.84;5013457;28;20029;-80
2023/02/13 10:37:11;;;;;;;21.23;14.37;;;;;;;6.93;42.31;101493.97;5015855;28;20026;-81
2023/02/13 10:39:36;;;;;;;16.60;13.23;;;;;;;6.97;41.74;101446.38;5008287;28;20018;-82
2023/02/13 10:42:17;;;;;;;16.67;12.67;;;;;;;7.58;41.44;101525.28;5018400;28;20021;-80
2023/02/13 10:45:10;;;;;;;17.07;13.17;;;;;;;7.66;42.05;101520.31;5031447;28;20028;-80
2023/02/13 10:48:25;;;;;;;22.03;14.10;;;;;;;7.75;41.42;101514.38;5019562;28;20038;-81
2023/02/13 10:51:08;;;;;;;13.90;11.27;;;;;;;7.74;41.62;101506.59;4994438;28;20049;-80
2023/02/13 10:54:15;;;;;;;15.47;11.43;;;;;;;7.18;41.27;101404.63;5029763;28;20413;-81
2023/02/13 10:56:55;;;;;;;17.20;11.37;;;;;;;7.84;41.10;101497.09;5031112;28;20018;-80
2023/02/13 10:59:46;;;;;;;15.23;11.33;;;;;;;7.92;41.52;101494.75;5030880;28;20521;-80
2023/02/13 11:02:28;;;;;;;14.87;10.90;;;;;;;7.95;41.43;101484.00;5021764;28;20044;-81
2023/02/13 11:05:01;;;;;;;12.52;10.27;;;;;;;7.96;41.23;101475.16;4993855;28;20062;-81
2023/02/13 11:07:27;;;;;;;17.77;12.80;;;;;;;7.03;40.96;101308.56;5010300;28;20491;-82
2023/02/13 11:09:58;;;;;;;17.38;12.88;;;;;;;8.07;40.89;101459.41;5008480;28;20029;-82
2023/02/13 11:12:29;;;;;;;21.13;15.52;;;;;;;7.91;40.22;101437.84;5009368;28;20057;-81
2023/02/13 11:15:04;;;;;;;16.48;13.02;;;;;;;8.13;40.62;101453.69;5007423;28;20030;-80
2023/02/13 11:17:35;;;;;;;17.00;12.60;;;;;;;8.16;40.54;101449.97;5015205;28;20045;-80
2023/02/13 11:20:05;;;;;;;14.75;12.13;;;;;;;8.07;40.60;101421.72;5012735;28;20525;-81
2023/02/13 11:22:34;;;;;;;18.27;14.60;;;;;;;8.28;40.42;101449.91;5014418;28;20422;-81
2023/02/13 11:25:17;;;;;;;19.58;14.30;;;;;;;7.62;40.61;101332.22;5023491;28;20060;-80
2023/02/13 11:27:42;;;;;;;;;;;;;;;8.22;39.79;101442.50;5034397;28;20098;-79
2023/02/13 11:30:36;;;;;;;23.55;15.73;;;;;;;8.29;40.11;101427.06;5027332;28;20008;-81
2023/02/13 11:33:26;;;;;;;22.38;17.02;;;;;;;8.32;40.21;101426.00;4994418;28;20053;-80
2023/02/13 11:36:05;;;;;;;18.02;13.25;;;;;;;8.28;39.98;101425.41;5009068;28;20085;-79
2023/02/13 11:38:31;;;;;;;24.00;17.50;;;;;;;8.30;40.07;101415.59;5016563;28;20415;-80
2023/02/13 11:41:24;;;;;;;22.17;16.23;;;;;;;8.02;40.34;101366.00;5018724;28;20033;-80
2023/02/13 11:44:00;;;;;;;26.33;18.33;;;;;;;8.28;40.55;101406.97;5017505;28;20145;-80
2023/02/13 11:46:28;;;;;;;16.77;12.57;;;;;;;8.25;40.48;101402.78;5013973;28;20060;-80
2023/02/13 11:49:04;;;;;;;16.85;12.45;;;;;;;8.27;40.34;101397.41;5017406;28;20044;-80
2023/02/13 11:51:42;;;;;;;14.15;11.57;;;;;;;7.93;40.07;101362.28;5029184;28;20490;-80
2023/02/13 11:54:41;;;;;;;19.40;11.70;;;;;;;8.22;40.37;101399.56;5009322;28;20486;-80
2023/02/13 11:57:20;;;;;;;13.00;9.77;;;;;;;7.39;40.60;101273.47;5020027;28;20030;-80
2023/02/13 11:59:48;;;;;;;12.05;10.00;;;;;;;7.98;40.60;101370.66;5014479;28;20030;-81
2023/02/13 12:02:21;;;;;;;16.63;12.55;;;;;;;8.12;40.81;101394.13;5021259;28;20045;-81
2023/02/13 12:04:48;;;;;;;16.35;12.18;;;;;;;7.85;40.69;101338.34;5007868;28;20459;-80
2023/02/13 12:07:19;;;;;;;13.45;10.82;;;;;;;7.77;41.04;101317.06;5014739;28;20100;-79
2023/02/13 12:09:49;;;;;;;13.93;11.52;;;;;;;7.58;41.14;101280.81;5022774;28;20353;-80
2023/02/13 12:12:26;;;;;;;15.93;11.98;;;;;;;7.47;41.41;101263.25;5016650;28;20033;-82
2023/02/13 12:14:52;;;;;;;15.82;12.43;;;;;;;7.74;40.94;101302.38;4997578;28;20041;-82
2023/02/13 12:17:24;;;;;;;17.10;11.60;;;;;;;7.70;41.33;101319.31;5012140;28;20022;-81
2023/02/13 12:19:50;;;;;;;15.50;12.10;;;;;;;7.70;41.58;101315.84;5003968;28;20030;-81
2023/02/13 12:22:35;;;;;;;15.07;12.77;;;;;;;8.09;41.95;101375.94;4994301;28;20464;-81